Time;durP1;ratioP1;P1;durP2;ratioP2;P2;SDS_P1;SDS_P2;PMS_P1;PMS_P2;Temp;Humidity;BMP_temperature;BMP_pressure;BME280_temperature;BME280_humidity;BME280_pressure;Samples;Min_cycle;Max_cycle;Signal;HPM_P1;HPM_P2
2022/05/30 03:53:15;;;;;;;;;;;16.50;60.70;;;;;;4768192;30;19926;-68
2022/05/30 03:55:42;;;;;;;;;;;16.50;60.60;;;;;;4791726;30;20322;-69
2022/05/30 03:58:09;;;;;;;;;;;16.50;60.90;;;;;;4781629;30;19926;-69
2022/05/30 04:00:38;;;;;;;;;;;16.40;61.10;;;;;;4774276;30;19925;-68
2022/05/30 04:03:04;;;;;;;;;;;16.40;61.60;;;;;;4771960;30;19930;-68
2022/05/30 04:05:30;;;;;;;;;;;16.40;62.60;;;;;;4773198;30;20383;-68
2022/05/30 04:07:57;;;;;;;;;;;16.40;62.20;;;;;;4773385;30;19930;-69
2022/05/30 04:10:23;;;;;;;;;;;16.40;62.20;;;;;;4774468;30;20253;-70
2022/05/30 04:12:49;;;;;;;;;;;16.50;62.20;;;;;;4772796;30;19926;-70
2022/05/30 04:15:19;;;;;;;;;;;16.60;62.30;;;;;;4758066;30;20250;-69
2022/05/30 04:17:45;;;;;;;;;;;16.70;62.40;;;;;;4773475;30;19936;-70
2022/05/30 04:20:11;;;;;;;;;;;16.60;60.30;;;;;;4772850;30;19925;-69
2022/05/30 04:22:37;;;;;;;;;;;16.60;62.30;;;;;;4772983;30;19933;-70
2022/05/30 04:25:03;;;;;;;;;;;16.70;62.60;;;;;;4773076;30;19993;-71
2022/05/30 04:27:29;;;;;;;;;;;16.80;62.90;;;;;;4773472;30;19958;-69
2022/05/30 04:29:54;;;;;;;;;;;16.90;63.00;;;;;;4773491;30;19933;-70
2022/05/30 04:32:20;;;;;;;;;;;16.90;62.80;;;;;;4772140;30;20360;-70
2022/05/30 04:34:46;;;;;;;;;;;17.00;63.00;;;;;;4772789;30;19926;-70
2022/05/30 04:37:12;;;;;;;;;;;17.00;62.60;;;;;;4773890;30;20025;-70
2022/05/30 04:39:37;;;;;;;;;;;17.10;63.00;;;;;;4773102;30;19925;-69
2022/05/30 04:42:04;;;;;;;;;;;17.10;62.80;;;;;;4772458;30;19979;-69
2022/05/30 04:44:29;;;;;;;;;;;17.20;62.90;;;;;;4773637;30;20012;-71
2022/05/30 04:46:56;;;;;;;;;;;17.20;62.80;;;;;;4773283;30;20290;-72
2022/05/30 04:49:22;;;;;;;;;;;17.30;62.70;;;;;;4773354;30;19925;-71
2022/05/30 04:51:48;;;;;;;;;;;17.40;62.70;;;;;;4769721;30;19984;-70
2022/05/30 04:54:13;;;;;;;;;;;17.50;62.50;;;;;;4772568;30;19969;-70
2022/05/30 04:56:40;;;;;;;;;;;17.50;58.20;;;;;;4772963;30;19965;-71
2022/05/30 04:59:06;;;;;;;;;;;17.40;61.50;;;;;;4757650;30;19925;-70
2022/05/30 05:01:32;;;;;;;;;;;17.50;61.90;;;;;;4772411;30;20008;-71
2022/05/30 05:03:57;;;;;;;;;;;17.60;61.60;;;;;;4771970;30;19936;-71
2022/05/30 05:06:23;;;;;;;;;;;17.70;61.50;;;;;;4772961;30;19948;-71
2022/05/30 05:08:58;;;;;;;;;;;17.80;61.30;;;;;;4772628;30;20314;-75
2022/05/30 05:11:25;;;;;;;;;;;17.80;61.20;;;;;;4772948;30;19986;-73
2022/05/30 05:13:51;;;;;;;;;;;17.80;60.90;;;;;;4772366;30;20012;-73
2022/05/30 05:16:18;;;;;;;;;;;17.80;61.00;;;;;;4772791;30;20026;-73
2022/05/30 05:18:44;;;;;;;;;;;17.80;61.40;;;;;;4772561;30;19926;-71
2022/05/30 05:21:26;;;;;;;;;;;17.60;57.50;;;;;;4756893;30;20246;-73
2022/05/30 05:23:52;;;;;;;;;;;17.20;58.00;;;;;;4771920;30;20032;-70
2022/05/30 05:26:18;;;;;;;;;;;17.00;59.10;;;;;;4772841;30;20012;-69
2022/05/30 05:28:44;;;;;;;;;;;16.80;60.10;;;;;;4772588;30;19925;-71
2022/05/30 05:31:12;;;;;;;;;;;16.70;61.50;;;;;;4756211;30;20405;-73
2022/05/30 05:33:38;;;;;;;;;;;16.80;62.90;;;;;;4754718;30;19973;-70
2022/05/30 05:36:04;;;;;;;;;;;17.00;63.20;;;;;;4753799;30;20369;-70
2022/05/30 05:38:29;;;;;;;;;;;17.30;62.90;;;;;;4739955;30;19937;-70
2022/05/30 05:40:55;;;;;;;;;;;17.40;62.90;;;;;;4754048;30;20258;-69
2022/05/30 05:43:21;;;;;;;;;;;17.60;62.70;;;;;;4753745;30;20002;-70
2022/05/30 05:45:46;;;;;;;;;;;17.70;62.60;;;;;;4754306;30;20361;-69
2022/05/30 05:48:12;;;;;;;;;;;17.80;62.40;;;;;;4754521;30;19926;-70
2022/05/30 05:50:39;;;;;;;;;;;17.90;62.20;;;;;;4766517;30;19934;-71
2022/05/30 05:53:05;;;;;;;;;;;18.00;62.00;;;;;;4772725;30;19926;-70
2022/05/30 05:55:31;;;;;;;;;;;18.20;61.70;;;;;;4776781;30;20394;-71
2022/05/30 05:57:56;;;;;;;;;;;18.20;61.10;;;;;;4778078;30;19926;-71
2022/05/30 06:00:22;;;;;;;;;;;18.30;61.40;;;;;;4760301;30;19995;-70
2022/05/30 06:02:47;;;;;;;;;;;18.20;61.20;;;;;;4760389;30;20249;-71
2022/05/30 06:05:13;;;;;;;;;;;18.00;58.30;;;;;;4775560;30;20352;-73
2022/05/30 06:07:40;;;;;;;;;;;17.70;59.60;;;;;;4775521;30;19926;-71
2022/05/30 06:10:07;;;;;;;;;;;17.60;60.50;;;;;;4760482;30;19925;-73
2022/05/30 06:12:37;;;;;;;;;;;17.60;62.90;;;;;;4759798;30;19946;-70
2022/05/30 06:15:06;;;;;;;;;;;17.50;61.10;;;;;;4760275;30;20261;-70
2022/05/30 06:17:34;;;;;;;;;;;17.50;61.50;;;;;;4776196;30;19937;-71
2022/05/30 06:20:00;;;;;;;;;;;17.60;62.10;;;;;;4775971;30;19926;-71
2022/05/30 06:22:26;;;;;;;;;;;17.50;62.20;;;;;;4774592;30;20020;-72
2022/05/30 06:24:51;;;;;;;;;;;17.60;62.70;;;;;;4759946;30;19930;-72
2022/05/30 06:27:19;;;;;;;;;;;17.80;63.10;;;;;;4776364;30;19925;-71
2022/05/30 06:29:45;;;;;;;;;;;17.90;62.80;;;;;;4775735;30;19926;-72
2022/05/30 06:32:11;;;;;;;;;;;18.00;62.50;;;;;;4775365;30;19937;-70
2022/05/30 06:34:37;;;;;;;;;;;18.10;62.20;;;;;;4760019;30;19926;-71
2022/05/30 06:37:02;;;;;;;;;;;18.10;62.20;;;;;;4775427;30;19937;-70
2022/05/30 06:39:28;;;;;;;;;;;18.20;62.20;;;;;;4775354;30;19965;-71
2022/05/30 06:41:54;;;;;;;;;;;18.20;62.10;;;;;;4759808;30;20016;-74
2022/05/30 06:44:19;;;;;;;;;;;18.30;62.20;;;;;;4759827;30;20338;-72
2022/05/30 06:46:45;;;;;;;;;;;18.30;62.60;;;;;;4775544;30;19926;-70
2022/05/30 06:49:11;;;;;;;;;;;18.30;62.50;;;;;;4775227;30;20334;-71
2022/05/30 06:51:36;;;;;;;;;;;18.40;62.70;;;;;;4772222;30;20329;-70
2022/05/30 06:54:03;;;;;;;;;;;18.30;63.10;;;;;;4783233;30;19933;-73
2022/05/30 06:56:30;;;;;;;;;;;18.40;63.60;;;;;;4759649;30;19926;-71
2022/05/30 06:58:56;;;;;;;;;;;18.50;61.40;;;;;;4775693;30;19933;-72
2022/05/30 07:01:26;;;;;;;;;;;18.20;61.60;;;;;;4760127;30;19930;-71
2022/05/30 07:03:52;;;;;;;;;;;18.10;62.20;;;;;;4773937;30;19941;-72
2022/05/30 07:06:19;;;;;;;;;;;18.10;64.20;;;;;;4774836;30;19926;-73
2022/05/30 07:08:46;;;;;;;;;;;18.10;64.40;;;;;;4774777;30;19991;-72
2022/05/30 07:11:12;;;;;;;;;;;18.10;64.60;;;;;;4774678;30;20262;-72
2022/05/30 07:13:38;;;;;;;;;;;18.10;64.80;;;;;;4773886;30;19994;-75
2022/05/30 07:16:04;;;;;;;;;;;18.10;65.00;;;;;;4774784;30;19926;-74
2022/05/30 07:18:29;;;;;;;;;;;18.10;65.20;;;;;;4759283;30;19925;-73
2022/05/30 07:20:59;;;;;;;;;;;18.10;65.10;;;;;;4759333;30;19926;-71
2022/05/30 07:23:25;;;;;;;;;;;18.10;65.10;;;;;;4773610;30;19952;-72
2022/05/30 07:25:56;;;;;;;;;;;18.10;65.30;;;;;;4774866;30;19926;-73
2022/05/30 07:28:21;;;;;;;;;;;18.20;64.70;;;;;;4774669;30;19926;-73
2022/05/30 07:30:47;;;;;;;;;;;18.10;64.20;;;;;;4774519;30;19944;-72
2022/05/30 07:33:13;;;;;;;;;;;18.20;63.90;;;;;;4773973;30;19934;-73
2022/05/30 07:35:38;;;;;;;;;;;18.20;63.60;;;;;;4773966;30;19926;-74
2022/05/30 07:38:04;;;;;;;;;;;18.20;63.10;;;;;;4774536;30;20340;-73
2022/05/30 07:40:29;;;;;;;;;;;18.30;63.00;;;;;;4758810;30;19936;-73
2022/05/30 07:42:55;;;;;;;;;;;18.30;62.80;;;;;;4774156;30;19980;-71
2022/05/30 07:45:20;;;;;;;;;;;18.30;62.30;;;;;;4773846;30;19926;-72
2022/05/30 07:47:47;;;;;;;;;;;18.30;60.70;;;;;;4774882;30;19926;-74
2022/05/30 07:50:13;;;;;;;;;;;18.30;60.50;;;;;;4774922;30;19990;-71
2022/05/30 07:52:38;;;;;;;;;;;18.30;61.10;;;;;;4774261;30;20265;-73
2022/05/30 07:55:04;;;;;;;;;;;18.20;60.40;;;;;;4758553;30;19926;-72
2022/05/30 08:00:15;;;;;;;;;;;18.20;61.10;;;;;;4758478;30;19926;-73
2022/05/30 08:02:41;;;;;;;;;;;18.20;61.40;;;;;;4773212;30;19993;-71
2022/05/30 08:05:08;;;;;;;;;;;18.20;61.60;;;;;;4773209;30;19925;-72
2022/05/30 08:07:33;;;;;;;;;;;18.20;61.70;;;;;;4773815;30;19951;-72
2022/05/30 08:09:59;;;;;;;;;;;18.20;61.70;;;;;;4774189;30;19926;-71
2022/05/30 08:12:25;;;;;;;;;;;18.20;61.70;;;;;;4772262;30;19941;-71
2022/05/30 08:14:52;;;;;;;;;;;18.20;61.80;;;;;;4758463;30;20373;-71
2022/05/30 08:17:17;;;;;;;;;;;18.20;61.80;;;;;;4757569;30;19991;-72
2022/05/30 08:19:43;;;;;;;;;;;18.20;61.80;;;;;;4773294;30;20303;-72
2022/05/30 08:22:10;;;;;;;;;;;18.20;61.80;;;;;;4773556;30;19932;-73
2022/05/30 08:24:36;;;;;;;;;;;18.30;61.90;;;;;;4774025;30;19925;-70
2022/05/30 08:27:03;;;;;;;;;;;18.30;62.00;;;;;;4758445;30;19930;-71
2022/05/30 08:29:29;;;;;;;;;;;18.30;61.90;;;;;;4773537;30;19936;-71
2022/05/30 08:31:55;;;;;;;;;;;18.30;61.80;;;;;;4772123;30;20277;-72
2022/05/30 08:34:20;;;;;;;;;;;18.30;61.80;;;;;;4773421;30;19926;-73
2022/05/30 08:36:46;;;;;;;;;;;18.30;61.70;;;;;;4773709;30;20311;-72
2022/05/30 08:41:57;;;;;;;;;;;18.30;61.70;;;;;;4757759;30;19925;-72
2022/05/30 08:44:23;;;;;;;;;;;18.20;61.60;;;;;;4773407;30;19926;-71
2022/05/30 08:46:49;;;;;;;;;;;18.20;61.60;;;;;;4773656;30;19926;-74
2022/05/30 08:49:22;;;;;;;;;;;18.20;61.50;;;;;;4773466;30;19926;-71
2022/05/30 08:52:06;;;;;;;;;;;18.30;61.70;;;;;;4772548;30;20354;-72
2022/05/30 08:54:50;;;;;;;;;;;18.30;61.70;;;;;;4772585;30;19930;-74
2022/05/30 08:57:27;;;;;;;;;;;18.30;61.70;;;;;;4772501;30;19983;-72
2022/05/30 08:59:55;;;;;;;;;;;18.30;61.50;;;;;;4773283;30;19990;-73
2022/05/30 09:02:30;;;;;;;;;;;18.30;61.50;;;;;;4772008;30;20316;-73
2022/05/30 09:05:06;;;;;;;;;;;18.20;61.60;;;;;;4772954;30;20258;-74
2022/05/30 09:07:35;;;;;;;;;;;18.20;61.80;;;;;;4771971;30;19926;-73
2022/05/30 09:10:15;;;;;;;;;;;18.20;61.90;;;;;;4772735;30;19926;-73
2022/05/30 09:12:47;;;;;;;;;;;18.20;62.20;;;;;;4772253;30;20012;-72
2022/05/30 09:15:15;;;;;;;;;;;18.20;62.50;;;;;;4771778;30;19937;-71
2022/05/30 09:17:43;;;;;;;;;;;18.20;62.30;;;;;;4772771;30;19922;-73
2022/05/30 09:20:11;;;;;;;;;;;18.20;62.10;;;;;;4742365;30;20372;-72
2022/05/30 09:22:38;;;;;;;;;;;18.20;62.20;;;;;;4771597;30;20354;-70
2022/05/30 09:27:49;;;;;;;;;;;18.20;62.40;;;;;;4757298;30;19925;-72
2022/05/30 09:30:20;;;;;;;;;;;18.20;62.60;;;;;;4772664;30;20025;-70
2022/05/30 09:33:05;;;;;;;;;;;18.20;62.60;;;;;;4756392;30;20009;-70
2022/05/30 09:35:32;;;;;;;;;;;18.20;62.30;;;;;;4769502;30;20108;-72
2022/05/30 09:38:21;;;;;;;;;;;18.20;62.40;;;;;;4772416;30;19940;-70
2022/05/30 09:40:49;;;;;;;;;;;18.20;62.40;;;;;;4772632;30;20281;-72
2022/05/30 09:43:23;;;;;;;;;;;18.20;62.30;;;;;;4771494;30;19937;-72
2022/05/30 09:45:48;;;;;;;;;;;18.30;62.60;;;;;;4772438;30;19937;-71
2022/05/30 09:48:15;;;;;;;;;;;18.30;62.20;;;;;;4772226;30;19925;-71
2022/05/30 09:50:45;;;;;;;;;;;18.50;62.00;;;;;;4772161;30;19926;-69
2022/05/30 09:53:10;;;;;;;;;;;18.50;61.90;;;;;;4771076;30;19926;-70
2022/05/30 09:55:37;;;;;;;;;;;18.60;61.90;;;;;;4772609;30;19932;-70
2022/05/30 09:58:07;;;;;;;;;;;18.70;61.70;;;;;;4772588;30;20262;-69
2022/05/30 10:00:35;;;;;;;;;;;18.90;61.60;;;;;;4772509;30;19929;-70
2022/05/30 10:03:09;;;;;;;;;;;19.00;61.40;;;;;;4771247;30;20354;-71
2022/05/30 10:05:35;;;;;;;;;;;19.20;61.20;;;;;;4756486;30;20261;-70
2022/05/30 10:08:24;;;;;;;;;;;19.20;61.00;;;;;;4771561;30;19977;-71
2022/05/30 10:10:51;;;;;;;;;;;19.30;60.90;;;;;;4772983;30;19942;-69
2022/05/30 10:13:43;;;;;;;;;;;19.30;60.90;;;;;;4771193;30;19936;-71
2022/05/30 10:16:13;;;;;;;;;;;19.30;60.80;;;;;;4770194;30;19976;-72
2022/05/30 10:18:52;;;;;;;;;;;19.20;60.30;;;;;;4772349;30;19972;-70
2022/05/30 10:21:26;;;;;;;;;;;18.90;60.50;;;;;;4771379;30;19934;-72
2022/05/30 10:30:11;;;;;;;;;;;18.50;62.20;;;;;;4756453;30;20340;-72
2022/05/30 10:32:40;;;;;;;;;;;18.70;63.10;;;;;;4771982;30;19926;-73
2022/05/30 10:35:25;;;;;;;;;;;18.70;62.60;;;;;;4756464;30;19925;-72
2022/05/30 10:37:50;;;;;;;;;;;18.80;63.20;;;;;;4771665;30;20020;-70
2022/05/30 10:40:25;;;;;;;;;;;18.80;61.50;;;;;;4774530;30;20020;-74
2022/05/30 10:42:53;;;;;;;;;;;18.80;59.60;;;;;;4775655;30;19925;-74
2022/05/30 10:45:31;;;;;;;;;;;18.90;60.10;;;;;;4775191;30;19934;-73
2022/05/30 10:47:58;;;;;;;;;;;18.90;60.70;;;;;;4774834;30;19926;-77
2022/05/30 10:50:42;;;;;;;;;;;18.90;61.30;;;;;;4759703;30;19926;-75
2022/05/30 10:53:11;;;;;;;;;;;18.90;61.10;;;;;;4775460;30;19926;-72
2022/05/30 10:55:38;;;;;;;;;;;18.90;61.90;;;;;;4775102;30;19933;-72
2022/05/30 10:58:08;;;;;;;;;;;18.90;62.00;;;;;;4774464;30;20073;-71
2022/05/30 11:00:40;;;;;;;;;;;19.00;62.50;;;;;;4774981;30;20078;-70
2022/05/30 11:03:06;;;;;;;;;;;19.00;63.60;;;;;;4773305;30;19940;-73
2022/05/30 11:05:51;;;;;;;;;;;19.00;63.30;;;;;;4774755;30;19930;-73
2022/05/30 11:08:21;;;;;;;;;;;19.00;63.00;;;;;;4756912;30;19937;-70
2022/05/30 11:11:00;;;;;;;;;;;19.10;65.20;;;;;;4757177;30;20246;-72
2022/05/30 11:13:35;;;;;;;;;;;19.10;66.30;;;;;;4741714;30;19926;-73
2022/05/30 11:16:02;;;;;;;;;;;19.00;63.30;;;;;;4757232;30;20272;-71
2022/05/30 11:18:28;;;;;;;;;;;19.00;63.80;;;;;;4773715;30;20344;-72
2022/05/30 11:21:13;;;;;;;;;;;19.10;63.70;;;;;;4774369;30;19925;-72
2022/05/30 11:23:39;;;;;;;;;;;19.10;63.80;;;;;;4758942;30;19926;-74
2022/05/30 11:26:07;;;;;;;;;;;19.10;63.50;;;;;;4744115;30;19925;-78
2022/05/30 11:28:39;;;;;;;;;;;19.10;63.10;;;;;;4774521;30;20047;-76
2022/05/30 11:31:07;;;;;;;;;;;19.00;62.60;;;;;;4759234;30;20342;-73
2022/05/30 11:33:46;;;;;;;;;;;19.00;61.80;;;;;;4773779;30;19926;-73
2022/05/30 11:36:44;;;;;;;;;;;19.10;61.50;;;;;;4773534;30;20422;-72
2022/05/30 11:39:23;;;;;;;;;;;19.00;61.20;;;;;;4739173;30;19925;-71
2022/05/30 11:42:07;;;;;;;;;;;19.00;61.20;;;;;;4774259;30;19983;-74
2022/05/30 11:44:43;;;;;;;;;;;18.90;61.30;;;;;;4774467;30;20365;-72
2022/05/30 11:47:20;;;;;;;;;;;19.00;61.00;;;;;;4773988;30;20398;-76
2022/05/30 11:49:49;;;;;;;;;;;18.90;61.00;;;;;;4758474;30;20346;-77
2022/05/30 11:52:33;;;;;;;;;;;18.90;61.30;;;;;;4773235;30;20227;-76
2022/05/30 11:55:11;;;;;;;;;;;18.90;61.40;;;;;;4774094;30;19932;-80
2022/05/30 11:57:59;;;;;;;;;;;18.90;61.50;;;;;;4758229;30;20381;-77
2022/05/30 12:00:47;;;;;;;;;;;18.90;61.70;;;;;;4758884;30;19922;-78
2022/05/30 12:03:12;;;;;;;;;;;18.90;61.80;;;;;;4757748;30;19964;-74
2022/05/30 12:05:46;;;;;;;;;;;19.00;61.30;;;;;;4758208;30;19972;-75
2022/05/30 12:08:30;;;;;;;;;;;18.90;60.90;;;;;;4757878;30;19965;-77
2022/05/30 12:11:15;;;;;;;;;;;19.00;60.80;;;;;;4772334;30;19921;-76
2022/05/30 12:13:41;;;;;;;;;;;19.00;60.70;;;;;;4773916;30;20330;-74
2022/05/30 12:16:25;;;;;;;;;;;19.00;60.70;;;;;;4772764;30;19930;-75
2022/05/30 12:24:37;;;;;;;;;;;19.00;60.90;;;;;;4781421;30;19925;-76
2022/05/30 12:27:03;;;;;;;;;;;19.00;61.00;;;;;;4774082;30;20246;-76
2022/05/30 12:29:37;;;;;;;;;;;19.00;60.80;;;;;;4773851;30;19998;-76
2022/05/30 12:32:09;;;;;;;;;;;19.00;61.00;;;;;;4772321;30;19926;-75
2022/05/30 12:34:54;;;;;;;;;;;19.00;61.20;;;;;;4772790;30;19936;-77
2022/05/30 12:37:41;;;;;;;;;;;19.00;60.90;;;;;;4752131;30;19926;-75
2022/05/30 12:40:13;;;;;;;;;;;19.00;61.30;;;;;;4772652;30;20059;-76
2022/05/30 12:42:42;;;;;;;;;;;19.00;61.60;;;;;;4773536;30;19925;-73
2022/05/30 12:45:17;;;;;;;;;;;19.00;61.20;;;;;;4757895;30;19937;-77
2022/05/30 12:47:53;;;;;;;;;;;19.00;61.30;;;;;;4772920;30;19926;-77
2022/05/30 12:50:31;;;;;;;;;;;19.00;61.60;;;;;;4773327;30;19987;-75
2022/05/30 12:53:01;;;;;;;;;;;19.00;61.70;;;;;;4772694;30;19932;-77
2022/05/30 12:55:33;;;;;;;;;;;18.90;61.90;;;;;;4772846;30;19955;-78
2022/05/30 12:57:59;;;;;;;;;;;18.90;62.20;;;;;;4757326;30;20024;-76
2022/05/30 13:00:36;;;;;;;;;;;18.90;62.40;;;;;;4772812;30;20016;-76
2022/05/30 13:03:20;;;;;;;;;;;18.90;62.30;;;;;;4772875;30;19929;-78
2022/05/30 13:05:59;;;;;;;;;;;18.90;61.80;;;;;;4772785;30;19994;-77
2022/05/30 13:08:43;;;;;;;;;;;18.90;61.40;;;;;;4772166;30;19984;-78
2022/05/30 13:11:09;;;;;;;;;;;18.90;61.20;;;;;;4773064;30;19934;-76
2022/05/30 13:13:37;;;;;;;;;;;18.90;61.40;;;;;;4772622;30;19941;-77
2022/05/30 13:16:08;;;;;;;;;;;18.90;61.40;;;;;;4772178;30;19937;-74
2022/05/30 13:18:34;;;;;;;;;;;18.90;61.50;;;;;;4772711;30;20021;-78
2022/05/30 13:21:01;;;;;;;;;;;18.90;61.40;;;;;;4758047;30;19926;-77
2022/05/30 13:23:32;;;;;;;;;;;19.00;61.40;;;;;;4772677;30;19925;-76
2022/05/30 13:25:58;;;;;;;;;;;18.90;61.20;;;;;;4772869;30;19925;-76
2022/05/30 13:28:27;;;;;;;;;;;19.00;61.30;;;;;;4772827;30;19936;-75
2022/05/30 13:30:54;;;;;;;;;;;19.00;61.40;;;;;;4772802;30;19933;-76
2022/05/30 13:33:24;;;;;;;;;;;19.00;61.40;;;;;;4772632;30;19991;-76
2022/05/30 13:35:51;;;;;;;;;;;19.00;61.60;;;;;;4771516;30;19925;-81
2022/05/30 13:38:23;;;;;;;;;;;19.00;61.70;;;;;;4756811;30;19932;-78
2022/05/30 13:40:48;;;;;;;;;;;19.00;60.80;;;;;;4772549;30;19990;-73
2022/05/30 13:43:19;;;;;;;;;;;19.00;60.70;;;;;;4771413;30;19922;-76
2022/05/30 13:45:45;;;;;;;;;;;19.00;59.20;;;;;;4772519;30;19921;-74
2022/05/30 13:48:13;;;;;;;;;;;18.90;59.60;;;;;;4772312;30;20017;-76
2022/05/30 13:50:45;;;;;;;;;;;18.90;59.20;;;;;;4772463;30;19936;-74
2022/05/30 13:53:11;;;;;;;;;;;19.00;59.70;;;;;;4771912;30;19926;-75
2022/05/30 13:55:37;;;;;;;;;;;19.00;59.60;;;;;;4772740;30;20404;-77
2022/05/30 13:58:03;;;;;;;;;;;19.00;59.70;;;;;;4756767;30;19933;-76
2022/05/30 14:00:31;;;;;;;;;;;19.00;60.10;;;;;;4768916;30;19933;-75
2022/05/30 14:02:57;;;;;;;;;;;19.00;60.10;;;;;;4756251;30;20292;-75
2022/05/30 14:05:30;;;;;;;;;;;19.00;60.10;;;;;;4772186;30;20016;-75
2022/05/30 14:07:56;;;;;;;;;;;19.00;59.30;;;;;;4771868;30;19925;-73
2022/05/30 14:10:23;;;;;;;;;;;19.00;58.90;;;;;;4772439;30;19930;-76
2022/05/30 14:12:49;;;;;;;;;;;19.00;58.60;;;;;;4771005;30;19926;-76
2022/05/30 14:15:20;;;;;;;;;;;19.00;58.90;;;;;;4774199;30;19933;-75
2022/05/30 14:17:49;;;;;;;;;;;19.10;58.50;;;;;;4760303;30;19932;-73
2022/05/30 14:20:29;;;;;;;;;;;19.10;59.30;;;;;;4775823;30;19925;-75
2022/05/30 14:22:57;;;;;;;;;;;19.10;58.80;;;;;;4775825;30;20291;-76
2022/05/30 14:25:36;;;;;;;;;;;19.10;57.00;;;;;;4774830;30;20353;-77
2022/05/30 14:28:08;;;;;;;;;;;19.10;58.20;;;;;;4774817;30;19925;-76
2022/05/30 14:30:34;;;;;;;;;;;19.10;57.90;;;;;;4759383;30;19925;-75
2022/05/30 14:33:10;;;;;;;;;;;19.10;58.70;;;;;;4775604;30;19925;-75
2022/05/30 14:35:36;;;;;;;;;;;19.10;58.30;;;;;;4759910;30;20334;-76
2022/05/30 14:38:03;;;;;;;;;;;19.20;58.50;;;;;;4759843;30;19926;-75
2022/05/30 14:40:31;;;;;;;;;;;19.20;58.40;;;;;;4760164;30;20231;-74
2022/05/30 14:42:58;;;;;;;;;;;19.20;58.80;;;;;;4759880;30;20081;-75
2022/05/30 14:45:27;;;;;;;;;;;19.20;58.70;;;;;;4775435;30;19926;-77
2022/05/30 14:47:55;;;;;;;;;;;19.20;58.80;;;;;;4774950;30;19979;-76
2022/05/30 14:50:35;;;;;;;;;;;19.20;58.60;;;;;;4759214;30;19976;-76
2022/05/30 14:53:01;;;;;;;;;;;19.20;58.90;;;;;;4773194;30;19926;-74
2022/05/30 14:55:34;;;;;;;;;;;19.20;58.90;;;;;;4774284;30;19926;-76
2022/05/30 14:58:10;;;;;;;;;;;19.20;59.20;;;;;;4774401;30;19926;-75
2022/05/30 15:00:56;;;;;;;;;;;19.20;59.30;;;;;;4774944;30;20395;-77
2022/05/30 15:06:11;;;;;;;;;;;19.10;59.10;;;;;;4774885;30;20345;-76
2022/05/30 15:08:39;;;;;;;;;;;19.20;59.10;;;;;;4775041;30;19973;-76
2022/05/30 15:11:16;;;;;;;;;;;19.10;59.20;;;;;;4775029;30;20016;-76
2022/05/30 15:13:45;;;;;;;;;;;19.10;59.40;;;;;;4759477;30;19921;-76
2022/05/30 15:16:11;;;;;;;;;;;19.10;59.30;;;;;;4758888;30;19932;-76
2022/05/30 15:18:37;;;;;;;;;;;19.10;59.20;;;;;;4774620;30;19921;-77
2022/05/30 15:21:03;;;;;;;;;;;19.10;59.90;;;;;;4758587;30;20012;-73
2022/05/30 15:23:29;;;;;;;;;;;19.10;61.70;;;;;;4774908;30;20370;-75
2022/05/30 15:25:54;;;;;;;;;;;19.10;63.50;;;;;;4774534;30;19965;-77
2022/05/30 15:28:21;;;;;;;;;;;19.10;63.80;;;;;;4774262;30;20349;-77
2022/05/30 15:30:50;;;;;;;;;;;19.20;63.30;;;;;;4743891;30;19921;-77
2022/05/30 15:33:16;;;;;;;;;;;19.20;66.50;;;;;;4758467;30;19926;-76
2022/05/30 15:35:41;;;;;;;;;;;19.30;67.70;;;;;;4774548;30;19925;-74
2022/05/30 15:38:07;;;;;;;;;;;19.30;68.50;;;;;;4774599;30;19926;-78
2022/05/30 15:40:34;;;;;;;;;;;19.40;63.70;;;;;;4756208;30;19926;-76
2022/05/30 15:42:59;;;;;;;;;;;19.30;63.20;;;;;;4758602;30;19926;-75
2022/05/30 15:45:25;;;;;;;;;;;19.30;63.30;;;;;;4774224;30;19983;-75
2022/05/30 15:47:51;;;;;;;;;;;19.30;63.70;;;;;;4773337;30;20025;-76
2022/05/30 15:50:17;;;;;;;;;;;19.30;63.50;;;;;;4773213;30;20288;-74
2022/05/30 15:58:18;;;;;;;;;;;19.30;62.10;;;;;;4774049;30;19925;-77
2022/05/30 16:00:45;;;;;;;;;;;19.30;61.40;;;;;;4774436;30;20253;-76
2022/05/30 16:03:10;;;;;;;;;;;19.30;61.20;;;;;;4773713;30;19995;-73
2022/05/30 16:05:37;;;;;;;;;;;19.30;61.50;;;;;;4758570;30;20358;-75
2022/05/30 16:08:07;;;;;;;;;;;19.20;61.10;;;;;;4773892;30;19929;-75
2022/05/30 16:10:32;;;;;;;;;;;19.20;61.70;;;;;;4771051;30;19930;-76
2022/05/30 16:12:58;;;;;;;;;;;19.20;62.20;;;;;;4773984;30;19940;-76
2022/05/30 16:15:24;;;;;;;;;;;19.20;62.30;;;;;;4773974;30;19936;-76
2022/05/30 16:17:49;;;;;;;;;;;19.30;62.40;;;;;;4773201;30;19976;-77
2022/05/30 16:20:15;;;;;;;;;;;19.20;62.10;;;;;;4774499;30;19973;-75
2022/05/30 16:22:42;;;;;;;;;;;19.20;61.80;;;;;;4753169;30;19926;-77
2022/05/30 16:25:10;;;;;;;;;;;19.20;61.40;;;;;;4773612;30;19925;-76
2022/05/30 16:27:36;;;;;;;;;;;19.20;61.10;;;;;;4763521;30;20024;-77
2022/05/30 16:30:02;;;;;;;;;;;19.20;60.60;;;;;;4773733;30;19988;-76
2022/05/30 16:32:27;;;;;;;;;;;19.20;60.20;;;;;;4757347;30;19926;-75
2022/05/30 16:34:53;;;;;;;;;;;19.20;59.60;;;;;;4773362;30;19929;-73
2022/05/30 16:37:23;;;;;;;;;;;19.10;59.60;;;;;;4757606;30;19937;-74
2022/05/30 16:39:49;;;;;;;;;;;19.10;59.30;;;;;;4743224;30;19926;-74
2022/05/30 16:42:14;;;;;;;;;;;19.10;59.30;;;;;;4772188;30;20104;-77
2022/05/30 16:44:40;;;;;;;;;;;19.00;59.10;;;;;;4757550;30;19932;-73
2022/05/30 16:47:06;;;;;;;;;;;19.00;59.40;;;;;;4773233;30;20342;-75
2022/05/30 16:49:32;;;;;;;;;;;19.00;59.80;;;;;;4757630;30;19926;-73
2022/05/30 16:51:58;;;;;;;;;;;19.00;59.60;;;;;;4773113;30;19925;-75
2022/05/30 16:54:24;;;;;;;;;;;18.90;60.20;;;;;;4756996;30;20319;-75
2022/05/30 16:56:51;;;;;;;;;;;18.90;59.70;;;;;;4757303;30;19925;-75
2022/05/30 16:59:17;;;;;;;;;;;18.90;59.90;;;;;;4773123;30;19995;-74
2022/05/30 17:01:43;;;;;;;;;;;18.90;60.30;;;;;;4773101;30;20246;-74
2022/05/30 17:04:09;;;;;;;;;;;18.90;60.60;;;;;;4773572;30;19926;-73
2022/05/30 17:06:35;;;;;;;;;;;18.90;60.80;;;;;;4772925;30;19926;-73
2022/05/30 17:09:01;;;;;;;;;;;18.90;60.90;;;;;;4772111;30;19980;-74
2022/05/30 17:11:27;;;;;;;;;;;18.90;60.90;;;;;;4773096;30;19926;-72
2022/05/30 17:13:52;;;;;;;;;;;18.90;60.80;;;;;;4757444;30;20354;-73
2022/05/30 17:16:18;;;;;;;;;;;19.00;61.30;;;;;;4772295;30;19926;-72
2022/05/30 17:18:43;;;;;;;;;;;19.00;60.60;;;;;;4757410;30;20074;-74
2022/05/30 17:21:09;;;;;;;;;;;18.90;60.50;;;;;;4755217;30;19933;-74
2022/05/30 17:23:35;;;;;;;;;;;18.90;60.40;;;;;;4757027;30;20342;-74
2022/05/30 18:13:29;;;;;;;;;;;18.50;58.40;;;;;;4767012;30;20380;-73
2022/05/30 18:15:57;;;;;;;;;;;18.50;58.30;;;;;;4772441;30;19929;-74
2022/05/30 18:21:30;;;;;;;;;;;18.50;58.20;;;;;;4772428;30;20246;-74
2022/05/30 18:24:14;;;;;;;;;;;18.40;58.00;;;;;;4756088;30;20361;-75
2022/05/30 18:26:40;;;;;;;;;;;18.40;57.80;;;;;;4762683;30;20241;-74
2022/05/30 18:29:06;;;;;;;;;;;18.40;57.70;;;;;;4771831;30;20016;-73
2022/05/30 18:31:50;;;;;;;;;;;18.40;57.70;;;;;;4755754;30;19987;-77
2022/05/30 18:34:16;;;;;;;;;;;18.40;57.70;;;;;;4756273;30;20234;-75
2022/05/30 18:37:01;;;;;;;;;;;18.40;57.80;;;;;;4771041;30;19946;-77
2022/05/30 18:39:38;;;;;;;;;;;18.40;57.80;;;;;;4747417;30;19922;-74
2022/05/30 18:42:22;;;;;;;;;;;18.40;57.90;;;;;;4754412;30;20338;-73
2022/05/30 18:44:47;;;;;;;;;;;18.40;57.90;;;;;;4754322;30;19983;-70
2022/05/30 18:47:14;;;;;;;;;;;18.40;58.00;;;;;;4766954;30;19933;-72
2022/05/30 18:49:40;;;;;;;;;;;18.30;58.00;;;;;;4771852;30;19926;-72
2022/05/30 18:52:06;;;;;;;;;;;18.30;58.20;;;;;;4771456;30;19937;-79
2022/05/30 18:54:32;;;;;;;;;;;18.30;58.30;;;;;;4756230;30;20013;-74
2022/05/30 18:57:01;;;;;;;;;;;18.30;58.50;;;;;;4753294;30;19979;-73
2022/05/30 18:59:30;;;;;;;;;;;18.30;58.60;;;;;;4770859;30;19969;-74
2022/05/30 19:01:56;;;;;;;;;;;18.30;58.70;;;;;;4774393;30;20341;-73
2022/05/30 19:04:22;;;;;;;;;;;18.20;58.70;;;;;;4775519;30;20300;-73
2022/05/30 19:06:49;;;;;;;;;;;18.20;58.80;;;;;;4774971;30;19933;-72
2022/05/30 19:09:14;;;;;;;;;;;18.20;58.80;;;;;;4775078;30;20301;-75
2022/05/30 19:11:43;;;;;;;;;;;18.20;58.90;;;;;;4774124;30;19933;-73
2022/05/30 19:14:11;;;;;;;;;;;18.20;58.90;;;;;;4775075;30;19933;-73
2022/05/30 19:19:33;;;;;;;;;;;18.20;59.20;;;;;;4774826;30;19941;-71
2022/05/30 19:21:58;;;;;;;;;;;18.20;59.40;;;;;;4759131;30;19930;-74
2022/05/30 19:24:24;;;;;;;;;;;18.20;59.60;;;;;;4774862;30;19926;-72
2022/05/30 19:26:50;;;;;;;;;;;18.20;59.80;;;;;;4774616;30;19994;-76
2022/05/30 19:29:17;;;;;;;;;;;18.20;59.90;;;;;;4758733;30;19983;-76
2022/05/30 19:31:43;;;;;;;;;;;18.20;60.00;;;;;;4774831;30;20016;-77
2022/05/30 19:34:09;;;;;;;;;;;18.20;60.40;;;;;;4774912;30;20257;-77
2022/05/30 19:36:35;;;;;;;;;;;18.20;60.10;;;;;;4758485;30;19941;-76
2022/05/30 19:39:01;;;;;;;;;;;18.10;59.70;;;;;;4758482;30;19922;-76
2022/05/30 19:41:27;;;;;;;;;;;18.00;59.60;;;;;;4773954;30;19975;-74